ADDS METAR Data INFO
IDs: Format: Raw Decoded Include TAF

Data at: 1939 UTC 17 Feb 2018

KHEQ 171930Z AUTO 31012G25KT 10SM CLR 12/M08 A3006 RMK AO2
KHEQ 171910Z AUTO 32014G20KT 10SM CLR 12/M08 A3007 RMK AO2
KHEQ 171850Z AUTO 32014G29KT 10SM CLR 11/M08 A3008 RMK AO2
KHEQ 171830Z AUTO 33016G25KT 10SM CLR 11/M08 A3008 RMK AO2
KHEQ 171810Z AUTO 32015G29KT 10SM CLR 09/M09 A3008 RMK AO2
KHEQ 171750Z AUTO 33023G29KT 10SM CLR 08/M10 A3008 RMK AO2
KHEQ 171730Z AUTO 34024G30KT 10SM CLR 08/M10 A3008 RMK AO2
KHEQ 171710Z AUTO 33023G31KT 10SM CLR 08/M09 A3008 RMK AO2
KHEQ 171650Z AUTO 32021G29KT 10SM CLR 08/M09 A3007 RMK AO2
KHEQ 171630Z AUTO 32024G28KT 10SM CLR 07/M09 A3007 RMK AO2
KHEQ 171610Z AUTO 31020G31KT 10SM CLR 06/M08 A3006 RMK AO2
KHEQ 171550Z AUTO 31016G24KT 10SM CLR 06/M07 A3005 RMK AO2
KHEQ 171530Z AUTO 30016G25KT 10SM CLR 05/M07 A3004 RMK AO2
KHEQ 171510Z AUTO 30013G17KT 10SM CLR 03/M07 A3004 RMK AO2
KHEQ 171450Z AUTO 30009G17KT 10SM CLR 02/M07 A3003 RMK AO2
KHEQ 171430Z AUTO 28008KT 10SM CLR 01/M06 A3001 RMK AO2
KHEQ 171410Z AUTO 29010KT 10SM CLR 01/M07 A3000 RMK AO2
KHEQ 171350Z AUTO 31013G17KT 10SM CLR 01/M07 A2998 RMK AO2
KHEQ 171330Z AUTO 31009KT 10SM CLR 01/M06 A2998 RMK AO2
KHEQ 171310Z AUTO 29009KT 10SM CLR 01/M06 A2999 RMK AO2
KHEQ 171250Z AUTO 31008KT 10SM CLR 01/M07 A2997 RMK AO2
KHEQ 171230Z AUTO 31008KT 10SM CLR 01/M07 A2997 RMK AO2
KHEQ 171210Z AUTO 32010G14KT 10SM CLR 01/M07 A2996 RMK AO2
KHEQ 171150Z AUTO 32011G17KT 10SM CLR 01/M07 A2995 RMK AO2
KHEQ 171130Z AUTO 32009KT 10SM CLR 01/M07 A2994 RMK AO2
KHEQ 171110Z AUTO 31007KT 10SM CLR 01/M07 A2993 RMK AO2
KHEQ 171050Z AUTO 31009G16KT 10SM CLR 03/M06 A2993 RMK AO2
KHEQ 171030Z AUTO 30012G19KT 10SM CLR 03/M07 A2992 RMK AO2
KHEQ 171010Z AUTO 30014G23KT 10SM CLR 03/M07 A2991 RMK AO2
KHEQ 170950Z AUTO 30012G18KT 10SM CLR 03/M07 A2991 RMK AO2
KHEQ 170930Z AUTO 30012G19KT 10SM CLR 03/M07 A2989 RMK AO2
KHEQ 170910Z AUTO 30013G21KT 10SM CLR 04/M07 A2988 RMK AO2
KHEQ 170850Z AUTO 31018G27KT 10SM CLR 05/M06 A2988 RMK AO2
KHEQ 170830Z AUTO 31017G23KT 10SM CLR 03/M04 A2987 RMK AO2
KHEQ 170810Z AUTO 31010G15KT 10SM CLR 01/M04 A2987 RMK AO2
KHEQ 170750Z AUTO 31011G15KT 10SM CLR 00/M03 A2986 RMK AO2
KHEQ 170730Z AUTO 27006KT 10SM CLR 00/M03 A2985 RMK AO2
KHEQ 170710Z AUTO 27007KT 10SM CLR 00/M03 A2984 RMK AO2
KHEQ 170650Z AUTO 28007KT 10SM CLR 01/M03 A2984 RMK AO2
KHEQ 170630Z AUTO 28003KT 10SM CLR 01/M03 A2984 RMK AO2
KHEQ 170610Z AUTO 34003KT 10SM CLR 01/M03 A2985 RMK AO2
KHEQ 170550Z AUTO 28003KT 10SM CLR 01/M03 A2984 RMK AO2
KHEQ 170530Z AUTO 00000KT 10SM CLR 01/M03 A2984 RMK AO2
KHEQ 170510Z AUTO 21005KT 10SM CLR 01/M03 A2984 RMK AO2
KHEQ 170450Z AUTO 21006KT 10SM CLR 01/M03 A2984 RMK AO2
KHEQ 170430Z AUTO 18007KT 10SM CLR 01/M03 A2984 RMK AO2
KHEQ 170410Z AUTO 18008KT 10SM CLR 00/M05 A2984 RMK AO2
KHEQ 170350Z AUTO 18009KT 10SM CLR 00/M05 A2984 RMK AO2
KHEQ 170330Z AUTO 18010KT 10SM CLR 00/M04 A2985 RMK AO2
KHEQ 170310Z AUTO 17009KT 10SM CLR 00/M05 A2986 RMK AO2
KHEQ 170250Z AUTO 17008KT 10SM CLR 00/M05 A2987 RMK AO2
KHEQ 170230Z AUTO 16007KT 10SM CLR 01/M05 A2987 RMK AO2
KHEQ 170210Z AUTO 17009KT 10SM CLR 01/M05 A2988 RMK AO2
KHEQ 170150Z AUTO 17009KT 10SM CLR 01/M05 A2989 RMK AO2
KHEQ 170130Z AUTO 17008KT 10SM CLR 02/M05 A2990 RMK AO2
KHEQ 170110Z AUTO 17009KT 10SM CLR 02/M05 A2990 RMK AO2
KHEQ 170055Z AUTO 18011KT 10SM CLR 03/M05 A2990 RMK AO2
KHEQ 170035Z AUTO 18012KT 10SM CLR 03/M05 A2990 RMK AO2
KHEQ 170015Z AUTO 19015G20KT 10SM CLR 03/M06 A2991 RMK AO2
KHEQ 162350Z AUTO 19017KT 10SM CLR 05/M05 A2992 RMK AO2
KHEQ 162330Z AUTO 18017KT 10SM CLR 05/M05 A2994 RMK AO2
KHEQ 162310Z AUTO 19017G21KT 10SM CLR 06/M04 A2995 RMK AO2
KHEQ 162250Z AUTO 19020G28KT 10SM CLR 07/M04 A2996 RMK AO2
KHEQ 162230Z AUTO 19020G24KT 10SM CLR 07/M04 A2997 RMK AO2
KHEQ 162210Z AUTO 18017G22KT 10SM CLR 07/M05 A2999 RMK AO2
KHEQ 162150Z AUTO 20019G23KT 10SM CLR 08/M05 A3000 RMK AO2
KHEQ 162130Z AUTO 18016KT 10SM CLR 07/M06 A3001 RMK AO2
KHEQ 162110Z AUTO 19017G21KT 10SM CLR 06/M07 A3003 RMK AO2
KHEQ 162050Z AUTO 17015G21KT 10SM CLR 06/M07 A3005 RMK AO2
KHEQ 162030Z AUTO 17014G19KT 10SM CLR 06/M07 A3006 RMK AO2
KHEQ 162010Z AUTO 20018KT 10SM CLR 06/M07 A3008 RMK AO2
KHEQ 161950Z AUTO 18017G23KT 10SM CLR 06/M07 A3010 RMK AO2
KHEQ 161930Z AUTO 17016G20KT 10SM CLR 06/M07 A3012 RMK AO2
KHEQ 161910Z AUTO 19016KT 10SM CLR 05/M08 A3014 RMK AO2
KHEQ 161850Z AUTO 20016G20KT 10SM CLR 05/M07 A3017 RMK AO2
KHEQ 161830Z AUTO 20016KT 10SM CLR 03/M07 A3020 RMK AO2
KHEQ 161810Z AUTO 20014KT 10SM CLR 03/M06 A3021 RMK AO2
KHEQ 161750Z AUTO 20015KT 10SM CLR 03/M06 A3023 RMK AO2
KHEQ 161730Z AUTO 22012KT 10SM CLR 02/M07 A3025 RMK AO2
KHEQ 161710Z AUTO 23009KT 10SM CLR 02/M07 A3026 RMK AO2
KHEQ 161650Z AUTO 21011KT 10SM CLR 01/M07 A3027 RMK AO2
KHEQ 161630Z AUTO 22010KT 10SM CLR 01/M06 A3027 RMK AO2
KHEQ 161610Z AUTO 24008KT 10SM CLR 00/M06 A3027 RMK AO2
KHEQ 161550Z AUTO 23009KT 10SM CLR M02/M06 A3029 RMK AO2
KHEQ 161530Z AUTO 23008KT 10SM CLR M03/M07 A3029 RMK AO2
KHEQ 161510Z AUTO 24007KT 10SM CLR M04/M08 A3029 RMK AO2
KHEQ 161450Z AUTO 23009KT 10SM CLR M05/M08 A3029 RMK AO2
KHEQ 161430Z AUTO 23007KT 10SM CLR M07/M10 A3029 RMK AO2
KHEQ 161410Z AUTO 23005KT 10SM CLR M07/M10 A3029 RMK AO2
KHEQ 161355Z AUTO 20005KT 10SM CLR M08/M11 A3030 RMK AO2
KHEQ 161335Z AUTO 21005KT 10SM CLR M08/M11 A3031 RMK AO2
KHEQ 161315Z AUTO 22005KT 10SM CLR M08/M11 A3031 RMK AO2
KHEQ 161250Z AUTO 25006KT 10SM CLR M08/M11 A3031 RMK AO2
KHEQ 161230Z AUTO 26006KT 10SM CLR M08/M11 A3032 RMK AO2
KHEQ 161210Z AUTO 24003KT 10SM CLR M09/M11 A3032 RMK AO2
KHEQ 161155Z AUTO 24004KT 10SM CLR M09/M11 A3033 RMK AO2
KHEQ 161130Z AUTO 24004KT 10SM CLR M08/M11 A3033 RMK AO2
KHEQ 161110Z AUTO 24004KT 10SM CLR M08/M11 A3033 RMK AO2
KHEQ 161055Z AUTO 25007KT 10SM CLR M08/M11 A3034 RMK AO2
KHEQ 161035Z AUTO 25005KT 10SM CLR M08/M11 A3034 RMK AO2
KHEQ 161015Z AUTO 26005KT 10SM CLR M09/M12 A3035 RMK AO2
KHEQ 160955Z AUTO 27004KT 10SM CLR M09/M12 A3036 RMK AO2
KHEQ 160935Z AUTO 00000KT 10SM CLR M08/M12 A3037 RMK AO2
KHEQ 160910Z AUTO 30004KT 10SM CLR M08/M12 A3037 RMK AO2
KHEQ 160855Z AUTO 31004KT 10SM CLR M08/M12 A3037 RMK AO2
KHEQ 160835Z AUTO 34011KT 10SM CLR M08/M12 A3037 RMK AO2
KHEQ 160810Z AUTO 33015KT 10SM CLR M07/M11 A3037 RMK AO2
KHEQ 160755Z AUTO 33013KT 10SM CLR M07/M11 A3037 RMK AO2